Terminal Aerodrome Forecast
Issued by NWS

Current Version | Previous Version | Graphics & Text | Print | Product List | Glossary On
Versions: 1 2 3 4 5 6 7 8 9 10 11 12 13 14 15 16 17 18 19 20 21 22 23 24 25 26 27 28 29 30 31 32 33 34 35 36 37
763
FTUS41 KRNK 290538
TAFLWB
TAF
KLWB 290538Z 2906/3006 00000KT P6SM SCT035 OVC060
     FM290900 00000KT 3SM BR OVC015
     FM291400 26005KT P6SM BKN035
     FM291800 28010KT P6SM SCT045
     FM300000 34004KT P6SM OVC100=

USA.gov is the U.S. government's official web portal to all federal, state and local government web resources and services.